Time;durP1;ratioP1;P1;durP2;ratioP2;P2;SDS_P1;SDS_P2;PMS_P1;PMS_P2;Temp;Humidity;BMP_temperature;BMP_pressure;BME280_temperature;BME280_humidity;BME280_pressure;Samples;Min_cycle;Max_cycle;Signal;HPM_P1;HPM_P2
2022/01/25 00:30:00;;;;;;;14.73;7.57;;;;;;;-9.69;60.47;96824.06;5106612;28;20031;-78
2022/01/25 00:32:25;;;;;;;22.23;8.40;;;;;;;-9.64;60.28;96828.34;5107256;28;20062;-79
2022/01/25 00:34:51;;;;;;;19.52;9.63;;;;;;;-9.68;60.43;96822.31;5106277;28;20478;-79
2022/01/25 00:37:16;;;;;;;16.63;7.75;;;;;;;-9.69;60.79;96821.44;5106607;28;20024;-78
2022/01/25 00:39:42;;;;;;;21.10;8.98;;;;;;;-9.65;60.69;96822.28;5106483;28;20062;-78
2022/01/25 00:42:10;;;;;;;19.17;7.75;;;;;;;-9.71;61.23;96817.16;5105573;28;20023;-78
2022/01/25 00:44:38;;;;;;;17.30;8.45;;;;;;;-9.66;60.73;96815.38;5089599;28;20506;-79
2022/01/25 00:47:06;;;;;;;19.48;9.05;;;;;;;-9.64;60.78;96818.81;5107241;28;20105;-79
2022/01/25 00:49:37;;;;;;;21.52;8.85;;;;;;;-9.53;60.57;96820.41;5108001;28;20019;-78
2022/01/25 00:52:18;;;;;;;18.60;8.52;;;;;;;-9.49;59.96;96819.50;5106384;28;20032;-79
2022/01/25 00:54:43;;;;;;;15.60;7.07;;;;;;;-9.52;60.26;96816.94;5106632;28;20034;-78
2022/01/25 00:57:09;;;;;;;17.23;8.00;;;;;;;-9.57;59.85;96815.25;5089141;28;20118;-78
2022/01/25 00:59:35;;;;;;;18.15;8.45;;;;;;;-9.78;60.26;96818.97;5105765;28;20031;-78
2022/01/25 01:02:05;;;;;;;18.05;7.88;;;;;;;-9.66;60.23;96815.38;5072377;28;20023;-78
2022/01/25 01:04:32;;;;;;;19.08;7.38;;;;;;;-9.61;60.55;96813.59;5108043;28;20047;-79
2022/01/25 01:06:58;;;;;;;17.70;7.88;;;;;;;-9.69;60.65;96805.88;5105892;28;20028;-78
2022/01/25 01:09:23;;;;;;;19.52;8.60;;;;;;;-9.64;60.74;96798.03;5105496;28;20042;-80
2022/01/25 01:11:57;;;;;;;19.88;8.73;;;;;;;-9.68;61.26;96798.94;5105810;28;20537;-78
2022/01/25 01:28:50;;;;;;;20.90;8.02;;;;;;;-9.62;61.21;96811.03;5104756;28;20035;-78
2022/01/25 01:33:21;;;;;;;15.07;8.10;;;;;;;-9.43;57.86;96796.06;5104017;28;20028;-78
2022/01/25 01:48:10;;;;;;;13.93;7.63;;;;;;;-9.41;59.23;96788.22;5088769;28;20019;-78
2022/01/25 01:50:37;;;;;;;21.85;7.28;;;;;;;-9.49;59.75;96785.72;5089287;28;20493;-79
2022/01/25 01:53:06;;;;;;;15.07;7.75;;;;;;;-9.47;59.51;96782.22;5105952;28;20023;-79
2022/01/25 01:55:32;;;;;;;19.15;7.53;;;;;;;-9.50;60.28;96778.81;5107307;28;20027;-78
2022/01/25 01:57:58;;;;;;;18.85;7.35;;;;;;;-9.50;59.76;96781.41;5106075;28;20538;-78
2022/01/25 02:00:30;;;;;;;17.55;7.63;;;;;;;-9.53;59.83;96774.53;5068262;28;20118;-78
2022/01/25 02:02:56;;;;;;;15.02;7.30;;;;;;;-9.47;59.63;96773.56;5085607;28;20107;-78
2022/01/25 02:05:22;;;;;;;17.55;7.50;;;;;;;-9.54;59.96;96775.38;5105587;28;20032;-78
2022/01/25 02:07:47;;;;;;;15.77;7.28;;;;;;;-9.66;60.27;96768.63;5105496;28;20031;-78
2022/01/25 02:10:13;;;;;;;17.83;8.30;;;;;;;-9.59;59.93;96780.66;5088510;28;20015;-79
2022/01/25 02:12:40;;;;;;;17.52;7.68;;;;;;;-9.59;59.61;96772.00;5105938;28;20027;-78
2022/01/25 02:15:06;;;;;;;16.73;7.60;;;;;;;-9.54;59.68;96774.53;5088845;28;20482;-78
2022/01/25 02:23:00;;;;;;;13.38;6.75;;;;;;;-9.74;60.59;96778.25;5105566;28;20042;-78
2022/01/25 02:25:26;;;;;;;16.40;7.90;;;;;;;-9.80;60.90;96761.88;5105291;28;20032;-77
2022/01/25 02:27:52;;;;;;;15.40;7.40;;;;;;;-9.83;60.79;96768.81;5088492;28;20024;-78
2022/01/25 02:30:17;;;;;;;15.48;7.65;;;;;;;-9.82;60.98;96761.00;5089039;28;20490;-79
2022/01/25 02:32:43;;;;;;;15.23;6.97;;;;;;;-9.77;61.00;96758.38;5105864;28;20027;-79
2022/01/25 02:35:08;;;;;;;15.38;7.22;;;;;;;-9.76;61.34;96762.69;5105251;28;20054;-79
2022/01/25 02:37:34;;;;;;;16.60;6.50;;;;;;;-9.78;61.34;96755.81;5105378;28;20069;-79
2022/01/25 02:39:59;;;;;;;16.58;7.72;;;;;;;-9.69;60.86;96753.09;5105609;28;20410;-79
2022/01/25 02:42:25;;;;;;;19.73;8.32;;;;;;;-9.56;60.66;96753.78;5104716;28;20584;-78
2022/01/25 02:44:51;;;;;;;15.93;7.90;;;;;;;-9.49;60.27;96754.53;5087662;28;20077;-78
2022/01/25 02:50:01;;;;;;;12.05;6.90;;;;;;;-9.60;60.54;96747.78;5089570;28;20492;-78
2022/01/25 02:52:26;;;;;;;13.10;8.15;;;;;;;-9.77;61.10;96739.34;5089840;28;20466;-78
2022/01/25 02:54:52;;;;;;;13.07;6.93;;;;;;;-9.81;61.38;96741.97;5089838;28;20031;-78
2022/01/25 02:57:17;;;;;;;16.77;7.88;;;;;;;-9.89;61.18;96736.03;5089472;28;20047;-77
2022/01/25 02:59:43;;;;;;;18.77;8.27;;;;;;;-9.82;61.31;96742.84;5074490;28;20031;-78
2022/01/25 03:02:08;;;;;;;16.80;8.15;;;;;;;-9.75;61.24;96745.38;5091215;28;20055;-79
2022/01/25 03:04:34;;;;;;;14.25;7.80;;;;;;;-9.72;61.08;96751.38;5088335;28;20032;-79
2022/01/25 03:06:59;;;;;;;17.65;8.30;;;;;;;-9.72;60.42;96740.16;5088172;28;20024;-78
2022/01/25 03:09:24;;;;;;;14.68;7.30;;;;;;;-9.77;60.27;96744.53;5088247;28;20028;-79
2022/01/25 03:11:52;;;;;;;16.65;7.63;;;;;;;-9.81;60.63;96744.56;5101522;28;20727;-79
2022/01/25 03:14:20;;;;;;;21.30;7.63;;;;;;;-9.88;61.10;96744.69;5087974;28;20031;-78
2022/01/25 03:17:06;;;;;;;16.85;7.60;;;;;;;-9.78;60.73;96738.47;5087971;28;20633;-79
2022/01/25 03:22:57;;;;;;;14.25;7.75;;;;;;;-9.88;60.84;96732.53;5073125;28;20075;-78
2022/01/25 03:24:59;;;;;;;13.90;7.40;;;;;;;-9.90;61.37;96734.31;5082829;28;20063;-78
2022/01/25 03:27:24;;;;;;;21.48;9.38;;;;;;;-9.85;61.08;96729.91;5070892;28;20059;-78
2022/01/25 03:29:50;;;;;;;24.45;9.52;;;;;;;-9.83;61.19;96729.88;5087887;28;20539;-78
2022/01/25 03:32:15;;;;;;;18.02;8.57;;;;;;;-9.91;61.80;96734.34;5088470;28;20475;-79
2022/01/25 03:34:40;;;;;;;16.23;8.48;;;;;;;-9.81;60.83;96733.31;5088007;28;20050;-80
2022/01/25 03:37:06;;;;;;;21.08;9.65;;;;;;;-9.94;61.46;96719.63;5077721;28;20031;-78
2022/01/25 03:39:31;;;;;;;18.17;8.88;;;;;;;-9.99;61.34;96724.03;5089855;28;20031;-78
2022/01/25 03:41:57;;;;;;;15.40;8.65;;;;;;;-9.93;60.92;96718.78;5089303;28;20020;-79
2022/01/25 03:44:22;;;;;;;22.70;10.57;;;;;;;-10.03;61.09;96719.75;5089267;28;20016;-78
2022/01/25 03:51:57;;;;;;;22.17;9.85;;;;;;;-10.15;62.16;96719.03;5107637;28;20123;-78
2022/01/25 03:54:23;;;;;;;22.38;9.40;;;;;;;-10.11;61.22;96720.72;5090659;28;20024;-79
2022/01/25 03:56:48;;;;;;;19.63;9.23;;;;;;;-10.10;61.55;96719.84;5106857;28;20026;-78
2022/01/25 03:59:14;;;;;;;21.83;9.48;;;;;;;-10.34;62.41;96710.59;5074515;28;20028;-78
2022/01/25 04:01:39;;;;;;;17.17;8.38;;;;;;;-10.23;62.64;96720.84;5082220;28;20032;-78
2022/01/25 04:04:11;;;;;;;22.58;9.65;;;;;;;-10.19;62.54;96722.53;5071906;28;20024;-78
2022/01/25 04:06:37;;;;;;;21.70;10.35;;;;;;;-10.18;63.07;96713.88;5088336;28;20028;-78
2022/01/25 04:09:05;;;;;;;18.73;9.85;;;;;;;-10.28;62.96;96713.13;5089023;28;20073;-78
2022/01/25 04:11:31;;;;;;;22.15;8.75;;;;;;;-10.23;63.27;96718.25;5109434;28;20065;-78
2022/01/25 04:13:57;;;;;;;23.02;10.82;;;;;;;-10.28;63.35;96707.09;5110929;28;20023;-77
2022/01/25 04:16:29;;;;;;;23.20;9.68;;;;;;;-10.56;64.42;96714.31;5118361;28;20035;-78
2022/01/25 04:26:53;;;;;;;21.33;11.02;;;;;;;-10.44;64.26;96715.03;5117552;28;20038;-79
2022/01/25 04:29:19;;;;;;;24.02;9.75;;;;;;;-10.42;63.97;96721.06;5073584;28;20127;-79
2022/01/25 04:31:44;;;;;;;28.52;10.57;;;;;;;-10.47;62.58;96718.56;5090524;28;20026;-78
2022/01/25 04:50:19;;;;;;;21.50;9.18;;;;;;;-10.49;64.86;96714.28;5105956;28;20034;-79
2022/01/25 04:53:03;;;;;;;26.52;12.20;;;;;;;-10.35;65.15;96717.50;5091001;28;20509;-78
2022/01/25 04:55:39;;;;;;;;;;;;;;;-10.35;65.88;96701.94;5108100;28;20027;-78
2022/01/25 04:58:12;;;;;;;16.48;6.70;;;;;;;-10.36;65.96;96702.84;5106514;28;19912;-79
2022/01/25 05:00:38;;;;;;;15.85;7.13;;;;;;;-10.38;66.90;96695.97;5107646;28;20032;-79
2022/01/25 05:03:26;;;;;;;21.42;8.55;;;;;;;-10.43;66.71;96703.78;5104930;28;20411;-78
2022/01/25 05:06:00;;;;;;;20.90;9.40;;;;;;;-10.39;66.65;96697.69;5106132;28;20035;-82
2022/01/25 05:08:43;;;;;;;21.88;9.35;;;;;;;-10.36;66.89;96700.25;5105965;28;20027;-78
2022/01/25 05:11:24;;;;;;;22.75;9.48;;;;;;;-10.48;67.33;96690.03;5107181;28;20245;-79
2022/01/25 05:13:55;;;;;;;22.88;10.00;;;;;;;-10.32;66.91;96694.16;5107862;28;20589;-78
2022/01/25 05:16:36;;;;;;;17.55;7.88;;;;;;;-10.37;67.00;96688.16;5105282;28;20054;-79
2022/01/25 05:22:05;;;;;;;20.42;8.90;;;;;;;-10.30;67.23;96689.78;5086539;28;20051;-77
2022/01/25 05:24:38;;;;;;;16.45;9.40;;;;;;;-10.34;67.63;96688.13;5083700;28;20034;-78
2022/01/25 05:27:04;;;;;;;21.85;10.50;;;;;;;-10.26;67.13;96682.84;5094444;28;20117;-76
2022/01/25 05:29:30;;;;;;;21.65;10.05;;;;;;;-10.24;67.73;96677.63;5087497;28;20035;-77
2022/01/25 05:31:56;;;;;;;24.20;11.40;;;;;;;-10.15;66.64;96674.03;5093160;28;20433;-78
2022/01/25 05:34:21;;;;;;;19.38;9.82;;;;;;;-10.09;66.13;96667.03;5071360;28;20028;-78
2022/01/25 05:36:47;;;;;;;24.30;11.13;;;;;;;-10.24;66.94;96678.50;5105719;28;20066;-76
2022/01/25 05:39:17;;;;;;;24.40;10.73;;;;;;;-10.23;67.04;96666.34;5108349;28;20027;-78
2022/01/25 05:41:45;;;;;;;22.35;10.35;;;;;;;-10.09;66.51;96661.84;5105691;28;20031;-78
2022/01/25 05:46:52;;;;;;;25.88;10.75;;;;;;;-9.91;65.97;96667.66;5097504;28;20200;-78
2022/01/25 05:49:18;;;;;;;15.40;8.10;;;;;;;-10.10;66.53;96670.53;5066429;28;20026;-78
2022/01/25 05:51:43;;;;;;;19.90;8.15;;;;;;;-10.13;66.66;96669.69;5102947;28;20031;-76
2022/01/25 05:54:09;;;;;;;20.23;9.65;;;;;;;-9.96;65.56;96669.50;5083215;28;20028;-77
2022/01/25 05:56:35;;;;;;;19.98;9.88;;;;;;;-9.97;65.81;96683.34;5081617;28;20031;-76
2022/01/25 05:59:00;;;;;;;18.75;8.52;;;;;;;-9.96;65.77;96678.13;5102425;28;20410;-77
2022/01/25 06:01:25;;;;;;;18.27;8.85;;;;;;;-9.92;65.69;96676.34;5100856;28;20035;-77
2022/01/25 06:03:52;;;;;;;20.35;9.40;;;;;;;-9.95;65.57;96666.88;5095504;28;20403;-76
2022/01/25 06:06:17;;;;;;;23.20;10.50;;;;;;;-9.96;65.77;96678.13;5103783;28;20040;-77
2022/01/25 06:08:43;;;;;;;21.45;9.63;;;;;;;-9.96;66.12;96677.28;5069959;28;20544;-75
2022/01/25 06:11:08;;;;;;;22.77;10.27;;;;;;;-9.97;66.20;96675.53;5104177;28;20478;-77
2022/01/25 06:13:33;;;;;;;21.52;10.75;;;;;;;-9.90;65.91;96669.41;5104055;28;20740;-79
2022/01/25 06:15:59;;;;;;;21.83;9.95;;;;;;;-9.81;65.90;96678.78;5103213;28;20486;-75
2022/01/25 06:18:24;;;;;;;22.67;10.57;;;;;;;-9.64;65.39;96675.09;5104331;28;20024;-77
2022/01/25 06:20:50;;;;;;;34.15;10.57;;;;;;;-9.80;65.80;96686.56;5110652;27;20481;-76
2022/01/25 06:23:15;;;;;;;28.70;11.10;;;;;;;-9.60;65.55;96664.66;5108132;28;20024;-77
2022/01/25 06:25:41;;;;;;;22.02;10.43;;;;;;;-9.34;64.59;96681.59;5106398;28;20023;-77
2022/01/25 06:28:06;;;;;;;19.98;9.57;;;;;;;-9.35;64.73;96681.59;5090839;28;20046;-76
2022/01/25 06:30:32;;;;;;;24.90;10.55;;;;;;;-9.04;63.31;96677.66;5109654;28;20112;-77
2022/01/25 06:32:59;;;;;;;23.20;10.43;;;;;;;-8.89;62.81;96677.38;5086703;28;20083;-78
2022/01/25 06:35:27;;;;;;;22.67;11.15;;;;;;;-8.92;62.23;96674.84;5095121;28;20772;-78
2022/01/25 06:37:53;;;;;;;24.65;10.95;;;;;;;-9.01;63.28;96680.19;5083570;28;20096;-78
2022/01/25 06:40:18;;;;;;;19.40;9.38;;;;;;;-8.92;62.72;96674.84;5091968;28;20023;-78
2022/01/25 06:42:44;;;;;;;29.10;12.45;;;;;;;-8.90;62.32;96674.81;5108161;28;20024;-79
2022/01/25 06:45:16;;;;;;;19.88;10.32;;;;;;;-8.85;61.46;96668.63;5108310;28;20039;-78
2022/01/25 06:47:42;;;;;;;20.38;9.88;;;;;;;-8.78;62.41;96658.97;5091452;28;20046;-78
2022/01/25 06:50:08;;;;;;;17.60;9.40;;;;;;;-8.70;62.23;96661.44;5088338;28;20044;-74
2022/01/25 06:52:36;;;;;;;22.63;10.20;;;;;;;-8.67;61.93;96660.53;5102844;28;20110;-76
2022/01/25 06:55:09;;;;;;;22.50;9.90;;;;;;;-8.70;61.63;96661.44;5107298;28;20030;-76
2022/01/25 06:57:35;;;;;;;;;;;;;;;-8.67;61.85;96656.16;5097304;28;20498;-78
2022/01/25 07:00:00;;;;;;;21.63;10.77;;;;;;;-8.82;62.05;96662.53;5108333;28;19973;-80
2022/01/25 07:02:26;;;;;;;25.38;10.43;;;;;;;-8.67;62.43;96674.38;5107705;28;20016;-79
2022/01/25 07:04:51;;;;;;;25.63;11.23;;;;;;;-8.58;61.06;96663.81;5105904;28;20159;-78
2022/01/25 07:07:16;;;;;;;28.20;12.70;;;;;;;-8.52;61.49;96667.13;5109842;28;20032;-78
2022/01/25 07:09:42;;;;;;;29.05;12.80;;;;;;;-8.34;60.69;96673.75;5107485;28;20024;-78
2022/01/25 07:12:08;;;;;;;25.20;11.35;;;;;;;-8.38;60.79;96646.91;5107999;28;20027;-78
2022/01/25 07:14:33;;;;;;;24.27;11.63;;;;;;;-8.39;60.39;96645.22;5108020;28;20062;-78
2022/01/25 07:16:59;;;;;;;28.33;12.50;;;;;;;-8.38;60.13;96652.13;5107791;28;20023;-79
2022/01/25 07:19:25;;;;;;;23.95;11.30;;;;;;;-7.98;58.38;96644.38;5110099;28;20493;-78
2022/01/25 07:21:51;;;;;;;27.27;11.32;;;;;;;-7.75;58.14;96656.03;5107741;28;20039;-79
2022/01/25 07:24:17;;;;;;;29.63;11.73;;;;;;;-7.58;57.20;96656.50;5108255;28;20023;-79
2022/01/25 07:26:43;;;;;;;31.00;12.73;;;;;;;-7.25;56.51;96647.06;5107634;28;20027;-78
2022/01/25 07:29:09;;;;;;;27.50;11.88;;;;;;;-6.98;56.77;96645.53;5108014;28;20035;-78
2022/01/25 07:31:34;;;;;;;24.08;11.13;;;;;;;-6.68;55.56;96649.13;5108065;28;20027;-78
2022/01/25 07:34:00;;;;;;;25.75;11.65;;;;;;;-6.66;54.69;96648.22;5107608;28;20039;-78
2022/01/25 07:36:25;;;;;;;22.95;11.18;;;;;;;-6.43;53.44;96646.69;5106222;28;20037;-78
2022/01/25 07:38:51;;;;;;;23.40;11.43;;;;;;;-6.53;53.80;96648.75;5107307;28;20027;-79
2022/01/25 07:41:16;;;;;;;26.05;11.55;;;;;;;-6.54;54.34;96644.41;5090771;28;20032;-77
2022/01/25 07:43:42;;;;;;;21.75;11.43;;;;;;;-6.28;53.57;96642.81;5107419;28;20028;-79
2022/01/25 07:46:07;;;;;;;19.52;10.98;;;;;;;-6.50;53.89;96643.44;5107563;28;20043;-78
2022/01/25 07:48:33;;;;;;;30.88;13.20;;;;;;;-6.58;54.98;96642.78;5108935;28;20848;-78
2022/01/25 07:50:58;;;;;;;28.77;12.07;;;;;;;-6.31;54.42;96632.47;5107210;28;20023;-79
2022/01/25 07:53:24;;;;;;;27.73;13.48;;;;;;;-6.04;54.35;96645.59;5108998;28;20032;-79
2022/01/25 07:55:49;;;;;;;27.63;13.43;;;;;;;-5.78;54.02;96640.50;5106713;28;20020;-78
2022/01/25 07:58:15;;;;;;;34.55;15.70;;;;;;;-5.64;52.94;96638.31;5090549;28;20023;-78
2022/01/25 08:00:40;;;;;;;28.13;13.43;;;;;;;-5.53;52.20;96648.44;5108239;28;20035;-79
2022/01/25 08:03:05;;;;;;;36.20;15.18;;;;;;;-5.45;52.52;96640.38;5107359;28;20046;-78
2022/01/25 08:05:31;;;;;;;28.38;14.50;;;;;;;-5.36;52.74;96642.69;5107081;28;20380;-78
2022/01/25 08:07:58;;;;;;;32.97;15.45;;;;;;;-5.29;52.51;96637.25;5108311;28;20434;-78
2022/01/25 08:10:23;;;;;;;26.27;14.40;;;;;;;-5.16;51.91;96633.34;5108455;28;20098;-78
2022/01/25 08:12:49;;;;;;;33.17;15.25;;;;;;;-5.15;51.86;96637.66;5106689;28;20031;-79
2022/01/25 08:15:15;;;;;;;30.13;14.18;;;;;;;-5.14;51.99;96641.97;5108849;28;20543;-78
2022/01/25 08:17:41;;;;;;;29.52;13.35;;;;;;;-4.98;51.63;96637.09;5106605;28;20031;-78
2022/01/25 08:20:06;;;;;;;24.15;11.90;;;;;;;-5.00;51.55;96632.84;5106923;28;20027;-77
2022/01/25 08:22:33;;;;;;;25.63;12.13;;;;;;;-5.01;51.01;96639.81;5106638;28;20019;-79
2022/01/25 08:24:59;;;;;;;25.25;12.63;;;;;;;-4.96;50.95;96634.44;5089931;28;20530;-78
2022/01/25 08:27:24;;;;;;;21.13;11.68;;;;;;;-4.90;50.86;96628.16;5089833;28;20022;-79
2022/01/25 08:29:50;;;;;;;25.42;12.30;;;;;;;-5.01;51.28;96631.09;5106516;28;20035;-78
2022/01/25 08:32:16;;;;;;;24.08;12.15;;;;;;;-5.01;50.89;96638.94;5106856;28;20023;-78
2022/01/25 08:34:41;;;;;;;24.75;12.43;;;;;;;-5.02;51.27;96637.25;5106362;28;20084;-78
2022/01/25 08:37:07;;;;;;;29.52;11.63;;;;;;;-5.24;51.55;96630.97;5106496;28;20509;-80
2022/01/25 08:39:32;;;;;;;25.13;11.18;;;;;;;-5.53;52.38;96634.53;5089337;28;20391;-79
2022/01/25 08:41:58;;;;;;;21.85;11.77;;;;;;;-5.55;52.55;96634.56;5107314;28;20471;-78
2022/01/25 08:44:23;;;;;;;29.98;11.50;;;;;;;-5.48;52.14;96637.84;5089339;28;20019;-79
2022/01/25 08:46:48;;;;;;;26.88;13.75;;;;;;;-5.38;52.36;96625.31;5089307;28;20104;-80
2022/01/25 08:49:14;;;;;;;23.25;11.52;;;;;;;-5.38;52.25;96612.25;5106171;28;20023;-81
2022/01/25 08:51:40;;;;;;;24.35;11.77;;;;;;;-5.40;52.36;96614.91;5106323;28;20024;-79
2022/01/25 08:54:06;;;;;;;25.45;12.20;;;;;;;-5.45;52.74;96619.44;5089386;28;20023;-81
2022/01/25 08:56:31;;;;;;;23.90;11.50;;;;;;;-5.37;52.41;96608.75;5088843;28;20020;-80
2022/01/25 08:58:56;;;;;;;23.40;11.27;;;;;;;-5.31;52.65;96612.91;5106184;28;20024;-79
2022/01/25 09:01:22;;;;;;;24.25;11.13;;;;;;;-5.41;52.71;96613.22;5105921;28;20484;-78
2022/01/25 09:03:47;;;;;;;19.95;10.73;;;;;;;-5.26;52.96;96611.88;5089083;28;20027;-78
2022/01/25 09:06:13;;;;;;;25.38;11.95;;;;;;;-5.25;52.17;96608.34;5106956;28;20105;-80
2022/01/25 09:08:38;;;;;;;27.80;12.65;;;;;;;-5.20;52.36;96605.56;5089363;28;20022;-78
2022/01/25 09:11:05;;;;;;;22.85;11.23;;;;;;;-5.18;51.92;96609.00;5071949;28;20027;-77
2022/01/25 09:13:31;;;;;;;26.17;11.13;;;;;;;-5.30;52.00;96598.94;5107066;27;20478;-82
2022/01/25 09:15:57;;;;;;;22.88;11.52;;;;;;;-5.34;52.43;96598.19;5106321;28;20020;-79
2022/01/25 09:18:23;;;;;;;26.00;11.18;;;;;;;-5.30;52.57;96598.94;5088897;28;20107;-80
2022/01/25 09:20:49;;;;;;;22.70;11.63;;;;;;;-5.51;52.38;96607.41;5106793;28;20423;-80
2022/01/25 09:23:18;;;;;;;25.50;11.73;;;;;;;-5.60;53.21;96603.34;5111658;28;20058;-82
2022/01/25 09:25:43;;;;;;;24.23;11.68;;;;;;;-5.36;52.74;96590.38;5089483;28;20367;-82
2022/01/25 09:28:10;;;;;;;20.77;10.38;;;;;;;-5.23;52.26;96577.75;5088126;28;20110;-82
2022/01/25 09:30:36;;;;;;;24.75;11.30;;;;;;;-5.14;52.25;96584.44;5088610;28;20680;-78
2022/01/25 09:33:03;;;;;;;26.00;11.50;;;;;;;-5.17;52.37;96584.53;5105496;28;20106;-79
2022/01/25 09:35:28;;;;;;;19.55;11.27;;;;;;;-5.08;52.52;96588.63;5106588;28;20076;-78
2022/01/25 09:37:53;;;;;;;22.38;10.70;;;;;;;-5.33;53.07;96581.56;5105547;28;20031;-78
2022/01/25 09:40:20;;;;;;;22.67;11.82;;;;;;;-5.34;53.70;96585.97;5105160;28;20027;-78
2022/01/25 09:42:50;;;;;;;24.77;12.38;;;;;;;-5.10;52.73;96575.59;5105684;28;20107;-80
2022/01/25 09:45:16;;;;;;;25.67;12.70;;;;;;;-4.93;52.64;96576.75;5089085;28;20054;-80
2022/01/25 09:47:41;;;;;;;26.58;13.13;;;;;;;-4.83;52.11;96574.66;5105306;28;20448;-79
2022/01/25 09:50:07;;;;;;;28.95;13.13;;;;;;;-4.64;51.92;96566.19;5106891;28;20493;-79
2022/01/25 09:52:33;;;;;;;27.20;13.05;;;;;;;-4.50;51.98;96566.50;5105909;28;20406;-77
2022/01/25 09:55:00;;;;;;;30.98;12.43;;;;;;;-4.57;51.42;96561.56;5104830;28;20023;-79
2022/01/25 09:57:26;;;;;;;26.10;12.20;;;;;;;-4.75;51.73;96550.84;5105046;28;20039;-78
2022/01/25 09:59:51;;;;;;;23.60;11.48;;;;;;;-4.67;52.05;96555.78;5105333;28;20117;-78
2022/01/25 10:02:43;;;;;;;25.58;10.85;;;;;;;-4.67;51.51;96547.94;5088136;28;20031;-78
2022/01/25 10:05:35;;;;;;;19.95;10.07;;;;;;;-4.65;51.90;96538.28;5105163;28;20028;-79
2022/01/25 10:08:05;;;;;;;21.30;11.07;;;;;;;-4.80;51.83;96539.69;5089647;28;20027;-81
2022/01/25 10:10:31;;;;;;;19.85;9.13;;;;;;;-4.94;51.81;96533.19;5106177;28;20020;-80
2022/01/25 10:13:06;;;;;;;17.13;9.75;;;;;;;-5.09;52.29;96522.34;5071569;28;20109;-79
2022/01/25 10:15:31;;;;;;;23.67;10.75;;;;;;;-5.17;52.90;96532.22;5104808;28;20069;-78
2022/01/25 10:17:57;;;;;;;20.42;8.73;;;;;;;-5.37;53.49;96525.88;5105857;28;20069;-78
2022/01/25 10:20:30;;;;;;;19.75;8.77;;;;;;;-5.52;53.20;96532.50;5106086;28;20031;-78
2022/01/25 10:22:59;;;;;;;19.35;9.73;;;;;;;-5.63;54.18;96526.78;5104703;28;20517;-77
2022/01/25 10:25:34;;;;;;;18.23;8.98;;;;;;;-5.60;54.35;96516.22;5104967;28;20108;-78
2022/01/25 10:28:00;;;;;;;20.77;9.45;;;;;;;-5.65;54.73;96508.53;5104599;28;20501;-77
2022/01/25 10:30:25;;;;;;;19.90;9.07;;;;;;;-5.79;54.44;96513.34;5106519;28;20028;-77
2022/01/25 10:32:54;;;;;;;20.52;10.50;;;;;;;-5.74;55.44;96516.66;5087724;28;20038;-79
2022/01/25 10:35:19;;;;;;;20.65;9.27;;;;;;;-5.72;55.20;96520.06;5104407;28;20023;-77
2022/01/25 10:37:45;;;;;;;22.48;9.95;;;;;;;-5.72;54.96;96512.22;5104868;28;20505;-77
2022/01/25 10:40:10;;;;;;;20.23;9.35;;;;;;;-5.74;55.26;96501.00;5104332;28;20484;-77
2022/01/25 10:42:36;;;;;;;22.05;10.10;;;;;;;-5.74;55.31;96503.59;5105905;28;20443;-79
2022/01/25 10:45:09;;;;;;;21.77;9.63;;;;;;;-5.84;55.07;96488.22;5104463;28;20256;-78
2022/01/25 10:47:49;;;;;;;21.30;9.88;;;;;;;-5.77;55.38;96485.41;5070812;28;20502;-78
2022/01/25 10:50:17;;;;;;;17.67;8.80;;;;;;;-5.81;55.30;96489.88;5087864;28;20108;-78
2022/01/25 10:52:43;;;;;;;22.20;9.95;;;;;;;-5.72;55.23;96502.63;5105691;28;20547;-78
2022/01/25 10:55:09;;;;;;;21.85;10.07;;;;;;;-5.73;55.49;96482.63;5070964;28;20122;-78
2022/01/25 10:57:34;;;;;;;19.52;9.75;;;;;;;-5.60;55.10;96477.00;5087071;28;20028;-79
2022/01/25 11:00:03;;;;;;;18.80;9.30;;;;;;;-5.43;54.94;96480.81;5088011;28;20405;-78
2022/01/25 11:02:29;;;;;;;21.83;10.50;;;;;;;-5.42;55.41;96477.28;5087324;28;20433;-78
2022/01/25 11:05:05;;;;;;;20.67;9.32;;;;;;;-5.49;54.83;96453.09;5107350;28;20023;-77
2022/01/25 11:07:40;;;;;;;17.85;9.05;;;;;;;-5.41;54.65;96455.44;5109811;28;20030;-78
2022/01/25 11:10:06;;;;;;;17.67;8.98;;;;;;;-5.38;53.76;96456.19;5090957;28;20027;-80
2022/01/25 11:12:37;;;;;;;22.92;10.10;;;;;;;-5.37;54.70;96457.06;5108298;28;20406;-77
2022/01/25 11:15:03;;;;;;;21.90;10.05;;;;;;;-5.36;54.53;96445.69;5109071;28;20016;-77
2022/01/25 11:17:30;;;;;;;19.33;9.48;;;;;;;-5.42;54.52;96457.22;5108250;28;20120;-78
2022/01/25 11:19:56;;;;;;;19.55;9.23;;;;;;;-5.32;54.25;96451.66;5091004;28;20032;-78
2022/01/25 11:22:22;;;;;;;24.73;10.52;;;;;;;-5.34;54.46;96456.94;5108326;28;20023;-78
2022/01/25 11:24:55;;;;;;;20.88;10.57;;;;;;;-5.27;54.67;96447.13;5107753;28;20398;-77
2022/01/25 11:27:23;;;;;;;21.92;9.98;;;;;;;-5.23;54.28;96448.72;5112699;28;20052;-78
2022/01/25 11:29:50;;;;;;;20.75;10.32;;;;;;;-5.26;54.38;96440.97;5116184;28;20042;-77
2022/01/25 11:32:18;;;;;;;21.08;10.05;;;;;;;-5.25;53.73;96429.59;5096302;28;20036;-78
2022/01/25 11:34:44;;;;;;;21.67;10.00;;;;;;;-5.19;53.72;96433.78;5093365;28;20026;-81
2022/01/25 11:37:09;;;;;;;23.17;10.02;;;;;;;-5.12;53.63;96427.41;5108175;28;20019;-78
2022/01/25 11:39:36;;;;;;;22.17;10.35;;;;;;;-4.96;53.57;96410.25;5108054;28;20022;-78
2022/01/25 11:42:15;;;;;;;18.45;9.18;;;;;;;-4.93;53.95;96424.97;5107631;28;20039;-78
2022/01/25 11:44:47;;;;;;;24.27;10.65;;;;;;;-4.85;53.78;96412.44;5092467;28;20056;-78
2022/01/25 11:47:16;;;;;;;19.80;8.95;;;;;;;-4.80;53.42;96422.75;5109356;28;20051;-79
2022/01/25 11:49:50;;;;;;;22.08;10.18;;;;;;;-4.67;53.34;96417.91;5107222;28;20040;-79
2022/01/25 11:52:16;;;;;;;21.95;10.20;;;;;;;-4.51;53.76;96414.69;5107732;28;20054;-77
2022/01/25 11:54:42;;;;;;;17.40;9.23;;;;;;;-4.52;52.98;96413.84;5090071;28;20414;-80
2022/01/25 11:57:15;;;;;;;23.15;10.35;;;;;;;-4.46;52.96;96412.75;5090762;28;20506;-82
2022/01/25 11:59:41;;;;;;;19.23;9.77;;;;;;;-4.48;52.45;96401.47;5091430;28;20058;-78
2022/01/25 12:02:07;;;;;;;19.83;10.38;;;;;;;-4.38;52.18;96399.34;5090291;28;20077;-77
2022/01/25 12:04:32;;;;;;;17.35;9.80;;;;;;;-4.31;51.45;96397.34;5108626;28;20016;-78
2022/01/25 12:07:08;;;;;;;21.08;10.75;;;;;;;-4.28;51.50;96405.06;5089552;28;20097;-78
2022/01/25 12:09:44;;;;;;;19.48;9.77;;;;;;;-4.27;52.03;96399.75;5107713;28;20024;-79
2022/01/25 12:12:10;;;;;;;20.70;10.43;;;;;;;-4.19;51.25;96391.59;5091262;28;20035;-79
2022/01/25 12:14:49;;;;;;;18.58;9.45;;;;;;;-4.08;51.77;96392.94;5073429;28;20031;-76
2022/01/25 12:17:19;;;;;;;18.52;9.93;;;;;;;-3.92;51.15;96386.16;5106700;28;20020;-79
2022/01/25 12:19:55;;;;;;;20.40;10.05;;;;;;;-3.86;50.62;96385.91;5108147;28;20110;-78
2022/01/25 12:25:05;;;;;;;24.65;10.57;;;;;;;-3.76;49.89;96385.50;5108510;28;20036;-78
2022/01/25 12:27:47;;;;;;;19.50;9.98;;;;;;;-3.71;50.11;96378.28;5092275;28;20031;-79
2022/01/25 12:30:19;;;;;;;19.73;9.95;;;;;;;-3.53;49.93;96383.66;5109165;27;20405;-79
2022/01/25 12:33:01;;;;;;;19.13;9.75;;;;;;;-3.40;49.39;96371.69;5090183;28;20032;-79
2022/01/25 12:35:57;;;;;;;18.50;10.05;;;;;;;-3.32;49.49;96362.66;5109007;28;20046;-77
2022/01/25 12:38:25;;;;;;;21.10;9.75;;;;;;;-3.18;49.28;96360.28;5107366;28;20147;-79
2022/01/25 12:40:52;;;;;;;20.70;9.95;;;;;;;-3.18;48.95;96362.91;5115399;28;20020;-78
2022/01/25 12:43:30;;;;;;;22.30;11.15;;;;;;;-3.09;48.83;96352.91;5119390;28;20063;-78
2022/01/25 12:46:16;;;;;;;21.83;10.45;;;;;;;-2.98;48.15;96346.22;5118371;28;20019;-79
2022/01/25 12:48:46;;;;;;;15.95;9.13;;;;;;;-3.03;48.47;96356.09;5102895;28;20051;-78
2022/01/25 12:51:12;;;;;;;20.25;9.93;;;;;;;-2.97;48.01;96349.72;5111951;28;20058;-78
2022/01/25 12:53:40;;;;;;;19.50;10.77;;;;;;;-2.94;47.78;96336.44;5073052;28;20036;-78
2022/01/25 12:56:09;;;;;;;22.33;11.00;;;;;;;-2.92;48.05;96326.72;5089505;28;20112;-79
2022/01/25 12:58:35;;;;;;;20.58;10.25;;;;;;;-2.86;48.03;96329.06;5106524;28;20027;-78
2022/01/25 13:01:04;;;;;;;18.52;9.80;;;;;;;-2.81;47.65;96330.63;5106287;28;20406;-77
2022/01/25 13:03:52;;;;;;;24.98;10.93;;;;;;;-2.71;47.96;96331.91;5107326;28;20070;-79
2022/01/25 13:06:22;;;;;;;20.02;10.18;;;;;;;-2.69;47.18;96329.19;5107470;28;20144;-78
2022/01/25 13:09:04;;;;;;;22.98;10.25;;;;;;;-2.59;47.06;96324.31;5107246;28;20024;-78
2022/01/25 13:12:25;;;;;;;26.20;11.15;;;;;;;-2.58;47.46;96320.81;5107080;28;20023;-78